Time;durP1;ratioP1;P1;durP2;ratioP2;P2;SDS_P1;SDS_P2;PMS_P1;PMS_P2;Temp;Humidity;BMP_temperature;BMP_pressure;BME280_temperature;BME280_humidity;BME280_pressure;Samples;Min_cycle;Max_cycle;Signal;HPM_P1;HPM_P2
2023/09/12 00:01:35;;;;;;;5.00;2.40;;;;;;;19.20;46.23;95375.06;5033741;28;20387;-75
2023/09/12 00:04:00;;;;;;;7.07;3.00;;;;;;;19.43;46.89;95436.66;5027077;28;20031;-75
2023/09/12 00:06:26;;;;;;;10.80;2.97;;;;;;;18.97;47.02;95365.69;5046502;28;20057;-75
2023/09/12 00:08:52;;;;;;;6.75;2.97;;;;;;;18.92;47.37;95371.22;5034234;28;20076;-75
2023/09/12 00:11:17;;;;;;;7.25;3.58;;;;;;;19.03;47.51;95387.78;5052629;28;20033;-75
2023/09/12 00:13:43;;;;;;;6.25;2.70;;;;;;;18.83;47.74;95375.84;5035431;28;20040;-75
2023/09/12 00:16:10;;;;;;;7.85;3.33;;;;;;;18.78;48.43;95410.91;5028570;28;20074;-75
2023/09/12 00:18:36;;;;;;;11.07;2.97;;;;;;;19.03;48.36;95422.72;5032446;28;20115;-76
2023/09/12 00:21:02;;;;;;;6.63;2.92;;;;;;;18.83;48.22;95408.09;5021429;28;20021;-76
2023/09/12 00:23:28;;;;;;;11.05;3.30;;;;;;;18.81;48.37;95411.09;5013920;28;20099;-75
2023/09/12 00:25:53;;;;;;;6.88;2.78;;;;;;;18.94;48.04;95432.69;5035438;28;20029;-76
2023/09/12 00:28:19;;;;;;;8.40;3.47;;;;;;;18.83;48.22;95395.44;5033615;28;20071;-75
2023/09/12 00:30:46;;;;;;;8.50;2.67;;;;;;;19.07;48.26;95445.94;5042344;28;20211;-75
2023/09/12 00:33:12;;;;;;;12.52;3.60;;;;;;;19.12;48.16;95440.41;5013127;28;20052;-75
2023/09/12 00:35:37;;;;;;;6.97;3.33;;;;;;;18.81;47.96;95440.63;5030247;28;20033;-75
2023/09/12 00:38:03;;;;;;;7.25;3.45;;;;;;;18.83;47.51;95434.94;5013312;28;20484;-75
2023/09/12 00:40:29;;;;;;;7.88;3.10;;;;;;;18.86;47.01;95416.28;5035998;28;20029;-75
2023/09/12 00:42:54;;;;;;;8.48;2.70;;;;;;;18.84;47.21;95425.78;5047470;28;20036;-75
2023/09/12 00:45:20;;;;;;;11.52;2.90;;;;;;;18.74;47.15;95410.78;5064342;28;20033;-75
2023/09/12 00:47:46;;;;;;;12.93;3.13;;;;;;;19.04;46.94;95449.28;5064672;28;20106;-75
2023/09/12 00:50:13;;;;;;;4.75;2.70;;;;;;;19.02;46.99;95439.97;5043111;28;20048;-76
2023/09/12 00:52:39;;;;;;;10.68;3.20;;;;;;;18.61;47.46;95400.22;5042701;28;20117;-76
2023/09/12 00:55:05;;;;;;;20.20;3.30;;;;;;;18.83;47.80;95451.06;5044401;28;20041;-75
2023/09/12 00:57:34;;;;;;;5.38;2.58;;;;;;;18.56;48.40;95448.69;5051931;28;20037;-75
2023/09/12 01:00:10;;;;;;;9.98;2.92;;;;;;;18.28;48.68;95416.00;5052718;28;20031;-76
2023/09/12 01:02:37;;;;;;;13.32;3.00;;;;;;;18.63;48.54;95457.88;5062892;28;20506;-75
2023/09/12 01:05:04;;;;;;;5.78;3.00;;;;;;;18.66;48.62;95445.72;5043346;28;20045;-75
2023/09/12 01:07:30;;;;;;;4.65;3.10;;;;;;;18.41;48.96;95441.91;5059924;28;20037;-75
2023/09/12 01:09:55;;;;;;;7.13;2.92;;;;;;;18.67;48.57;95456.16;5064533;28;20062;-76
2023/09/12 01:12:21;;;;;;;7.95;3.28;;;;;;;18.40;48.70;95426.88;5052830;28;20124;-75
2023/09/12 01:14:47;;;;;;;9.43;3.30;;;;;;;18.47;48.65;95421.81;5058918;28;20047;-77
2023/09/12 01:17:12;;;;;;;8.63;2.78;;;;;;;18.35;48.94;95409.06;5062816;28;20029;-75
2023/09/12 01:19:37;;;;;;;6.68;3.22;;;;;;;18.73;48.65;95465.63;5052933;28;20128;-75
2023/09/12 01:22:21;;;;;;;3.53;2.58;;;;;;;18.58;49.30;95458.03;5052467;28;20078;-75
2023/09/12 01:25:24;;;;;;;8.55;3.20;;;;;;;18.63;48.99;95455.19;5052912;28;20032;-75
2023/09/12 01:27:51;;;;;;;9.48;3.72;;;;;;;18.65;48.96;95462.94;5052977;28;20024;-75
2023/09/12 01:30:20;;;;;;;13.93;3.50;;;;;;;18.66;48.92;95464.53;5040533;28;20061;-75
2023/09/12 01:32:47;;;;;;;10.93;3.60;;;;;;;18.44;49.31;95454.72;5051558;28;20431;-75
2023/09/12 01:35:13;;;;;;;9.45;3.95;;;;;;;18.12;49.30;95403.06;5044989;28;20076;-75
2023/09/12 01:37:38;;;;;;;10.02;4.65;;;;;;;18.65;49.25;95468.31;5051695;28;20037;-75
2023/09/12 01:40:04;;;;;;;12.25;4.80;;;;;;;18.18;49.49;95392.94;5050581;28;20039;-75
2023/09/12 01:42:59;;;;;;;12.98;3.92;;;;;;;18.23;49.76;95432.28;5051488;28;20044;-75
2023/09/12 01:45:25;;;;;;;12.82;4.47;;;;;;;18.29;49.95;95453.28;5048074;28;20045;-76
2023/09/12 01:47:51;;;;;;;11.43;4.75;;;;;;;18.32;50.46;95455.31;5036929;28;20056;-75
2023/09/12 01:50:17;;;;;;;9.30;4.32;;;;;;;18.22;50.18;95450.28;5038487;28;20391;-78
2023/09/12 01:52:43;;;;;;;18.38;4.28;;;;;;;18.36;50.07;95458.19;5056719;28;20511;-78
2023/09/12 01:55:10;;;;;;;10.80;4.07;;;;;;;18.17;50.00;95453.09;5057870;28;20036;-78
2023/09/12 01:57:38;;;;;;;15.73;4.47;;;;;;;18.42;50.49;95473.81;5057222;28;20045;-78
2023/09/12 02:00:04;;;;;;;12.93;5.32;;;;;;;18.05;50.39;95431.47;5038324;28;20044;-78
2023/09/12 02:02:29;;;;;;;12.55;4.38;;;;;;;18.35;50.55;95478.06;5038470;28;20461;-78
2023/09/12 02:05:27;;;;;;;12.25;4.20;;;;;;;18.33;50.18;95481.06;5057356;28;20056;-78
2023/09/12 02:07:52;;;;;;;11.40;4.65;;;;;;;18.16;49.90;95442.69;5002790;28;20064;-78
2023/09/12 02:10:18;;;;;;;15.55;5.25;;;;;;;17.92;50.59;95427.81;5031201;28;20044;-78
2023/09/12 02:12:43;;;;;;;12.65;4.60;;;;;;;18.12;50.71;95453.25;5017089;28;20048;-78
2023/09/12 02:15:09;;;;;;;11.60;4.35;;;;;;;17.84;51.41;95460.78;5024368;28;20025;-78
2023/09/12 02:17:35;;;;;;;14.30;4.75;;;;;;;17.91;51.28;95452.28;5035944;28;20491;-78
2023/09/12 02:20:00;;;;;;;15.57;4.97;;;;;;;17.95;51.13;95458.59;5032450;28;20509;-78
2023/09/12 02:22:26;;;;;;;16.65;4.55;;;;;;;17.79;51.52;95470.84;5022596;28;20436;-78
2023/09/12 02:24:51;;;;;;;9.82;4.68;;;;;;;17.78;51.49;95445.91;5034595;28;20145;-78
2023/09/12 02:27:16;;;;;;;8.05;4.53;;;;;;;17.62;52.04;95456.28;5035921;28;20052;-78
2023/09/12 02:29:42;;;;;;;7.45;4.20;;;;;;;17.67;52.04;95487.56;5035237;28;20064;-78
2023/09/12 02:32:09;;;;;;;15.80;4.38;;;;;;;17.62;52.30;95485.78;5036159;28;20415;-78
2023/09/12 02:34:34;;;;;;;11.65;4.63;;;;;;;17.50;52.37;95461.44;5023606;28;20521;-78
2023/09/12 02:37:00;;;;;;;14.32;4.40;;;;;;;17.40;52.38;95444.81;5034421;28;20135;-78
2023/09/12 02:39:25;;;;;;;11.50;5.07;;;;;;;17.68;52.32;95478.41;5028197;28;20043;-78
2023/09/12 02:41:51;;;;;;;12.00;4.43;;;;;;;17.62;52.44;95471.63;5016048;28;20394;-79
2023/09/12 02:44:16;;;;;;;10.50;5.40;;;;;;;17.30;52.85;95451.28;5016177;28;20033;-78
2023/09/12 02:46:42;;;;;;;8.45;4.18;;;;;;;17.35;53.12;95456.50;5020889;28;20353;-78
2023/09/12 02:49:08;;;;;;;11.82;4.38;;;;;;;17.26;53.04;95450.28;5054245;28;20033;-78
2023/09/12 02:51:33;;;;;;;10.20;4.85;;;;;;;17.21;53.38;95463.84;5034898;28;20479;-79
2023/09/12 02:53:59;;;;;;;16.70;5.10;;;;;;;16.71;53.61;95383.66;5035764;28;20032;-79
2023/09/12 02:56:24;;;;;;;9.13;4.72;;;;;;;16.95;53.94;95435.00;5034062;28;20105;-78
2023/09/12 02:58:50;;;;;;;14.00;4.10;;;;;;;16.91;53.96;95425.22;5059391;28;20040;-78
2023/09/12 03:01:19;;;;;;;29.67;4.97;;;;;;;17.37;53.56;95483.78;5061822;28;20033;-78
2023/09/12 03:03:49;;;;;;;8.07;4.25;;;;;;;17.38;53.50;95488.06;5051211;28;20032;-78
2023/09/12 03:06:15;;;;;;;7.22;4.85;;;;;;;17.29;53.51;95461.19;5047782;28;20115;-78
2023/09/12 03:08:41;;;;;;;16.33;4.55;;;;;;;17.28;53.54;95464.97;5049180;28;20022;-78
2023/09/12 03:11:07;;;;;;;10.25;4.28;;;;;;;17.35;52.83;95485.97;5030629;28;20057;-78
2023/09/12 03:13:33;;;;;;;13.20;4.85;;;;;;;17.06;53.09;95456.97;5029550;28;20029;-78
2023/09/12 03:16:02;;;;;;;6.85;3.80;;;;;;;17.29;53.45;95485.31;5031349;28;20060;-78
2023/09/12 03:18:27;;;;;;;12.07;5.13;;;;;;;16.53;53.81;95417.56;5031516;28;20129;-78
2023/09/12 03:20:52;;;;;;;11.10;4.93;;;;;;;16.97;54.70;95489.06;5030842;28;20091;-78
2023/09/12 03:23:20;;;;;;;12.95;5.43;;;;;;;16.91;54.85;95494.88;5038438;28;20037;-78
2023/09/12 03:25:45;;;;;;;12.00;4.80;;;;;;;17.04;54.29;95488.66;5053404;28;20033;-78
2023/09/12 03:28:11;;;;;;;11.90;4.95;;;;;;;16.59;54.47;95423.56;5053748;28;20101;-78
2023/09/12 03:30:37;;;;;;;9.55;5.22;;;;;;;17.09;54.34;95490.41;5057340;28;20025;-77
2023/09/12 03:33:03;;;;;;;13.52;5.00;;;;;;;16.96;54.53;95487.50;5051497;28;20037;-77
2023/09/12 03:35:31;;;;;;;18.17;5.90;;;;;;;17.03;54.15;95486.25;5049893;28;20538;-78
2023/09/12 03:37:56;;;;;;;14.82;4.65;;;;;;;17.01;54.17;95486.59;5049389;28;20076;-78
2023/09/12 03:40:22;;;;;;;11.35;5.25;;;;;;;16.68;54.70;95456.59;5049079;28;20026;-78
2023/09/12 03:42:47;;;;;;;15.73;5.55;;;;;;;17.07;54.70;95497.97;5030566;28;20071;-78
2023/09/12 03:45:12;;;;;;;14.80;5.80;;;;;;;16.74;54.33;95441.97;5029343;28;20094;-78
2023/09/12 03:47:38;;;;;;;15.80;5.75;;;;;;;16.87;54.52;95472.47;5028103;28;20040;-78
2023/09/12 03:50:04;;;;;;;21.42;5.28;;;;;;;17.06;54.68;95491.03;5032793;28;20089;-78
2023/09/12 03:52:29;;;;;;;14.68;5.85;;;;;;;16.89;54.62;95480.97;5050348;28;20503;-78
2023/09/12 03:54:55;;;;;;;15.95;5.93;;;;;;;16.60;55.08;95481.38;5043366;28;20033;-78
2023/09/12 03:57:21;;;;;;;15.63;5.78;;;;;;;16.65;55.25;95494.69;5038018;28;20041;-78
2023/09/12 03:59:46;;;;;;;14.82;5.57;;;;;;;16.56;55.36;95483.88;5045903;28;20029;-78
2023/09/12 04:02:12;;;;;;;16.70;5.90;;;;;;;16.39;56.41;95488.31;5046176;28;20120;-78
2023/09/12 04:04:38;;;;;;;15.05;6.15;;;;;;;16.34;56.15;95480.38;5046460;28;20093;-78
2023/09/12 04:07:04;;;;;;;12.38;5.65;;;;;;;16.43;56.34;95492.75;5068522;28;20032;-78
2023/09/12 04:09:29;;;;;;;19.83;5.60;;;;;;;16.30;56.36;95476.72;5064962;28;20029;-75
2023/09/12 04:11:55;;;;;;;17.67;6.38;;;;;;;16.49;56.29;95507.59;5064865;28;20059;-75
2023/09/12 04:14:21;;;;;;;16.50;6.20;;;;;;;16.25;57.16;95498.25;5046874;28;20043;-75
2023/09/12 04:16:46;;;;;;;22.70;6.53;;;;;;;16.00;57.87;95497.72;5062081;28;20531;-75
2023/09/12 04:19:14;;;;;;;13.82;5.70;;;;;;;15.80;57.45;95464.13;5062123;28;20025;-75
2023/09/12 04:21:39;;;;;;;19.38;6.53;;;;;;;16.09;56.91;95471.84;5064138;28;20032;-75
2023/09/12 04:24:06;;;;;;;13.63;6.15;;;;;;;15.78;56.37;95409.38;5047987;28;20048;-75
2023/09/12 04:26:31;;;;;;;19.20;6.20;;;;;;;16.33;56.16;95466.19;5055282;28;20037;-76
2023/09/12 04:28:56;;;;;;;17.17;6.57;;;;;;;16.39;56.18;95507.03;5046355;28;20047;-75
2023/09/12 04:31:22;;;;;;;11.63;5.65;;;;;;;16.27;56.50;95490.69;5039276;28;20032;-75
2023/09/12 04:33:47;;;;;;;27.88;7.22;;;;;;;16.35;56.26;95487.31;5046748;28;20045;-75
2023/09/12 04:36:13;;;;;;;17.58;6.60;;;;;;;16.62;55.69;95502.53;5048414;28;20025;-75
2023/09/12 04:38:38;;;;;;;21.05;7.13;;;;;;;16.63;55.74;95498.78;5033196;28;20140;-75
2023/09/12 04:41:07;;;;;;;22.20;7.65;;;;;;;16.70;55.60;95496.47;5046577;28;20040;-75
2023/09/12 04:43:32;;;;;;;20.67;7.25;;;;;;;16.76;55.15;95505.94;5062724;28;20041;-75
2023/09/12 04:45:57;;;;;;;17.55;7.18;;;;;;;16.68;54.80;95485.25;5064675;28;20052;-77
2023/09/12 04:48:23;;;;;;;14.65;6.68;;;;;;;16.66;55.02;95474.03;5046756;28;20089;-75
2023/09/12 04:50:48;;;;;;;19.30;6.65;;;;;;;16.48;53.70;95465.84;5047379;28;20052;-76
2023/09/12 04:53:14;;;;;;;18.98;6.45;;;;;;;16.53;53.24;95452.38;5042665;28;20044;-77
2023/09/12 04:55:39;;;;;;;19.60;7.00;;;;;;;16.69;53.43;95493.00;5063770;28;20036;-75
2023/09/12 04:58:05;;;;;;;21.33;7.15;;;;;;;17.01;53.48;95520.63;5064600;28;20079;-76
2023/09/12 05:00:32;;;;;;;26.73;6.93;;;;;;;16.99;53.53;95520.94;5046382;28;20119;-76
2023/09/12 05:02:57;;;;;;;28.73;7.53;;;;;;;16.90;52.96;95487.94;5047063;28;20037;-76
2023/09/12 05:05:23;;;;;;;21.13;6.75;;;;;;;17.24;53.03;95524.88;5061308;28;20100;-75
2023/09/12 05:07:48;;;;;;;17.05;6.65;;;;;;;17.20;52.11;95518.53;5043721;28;20040;-77
2023/09/12 05:10:13;;;;;;;24.83;6.47;;;;;;;16.76;52.25;95485.31;5049443;28;20134;-75
2023/09/12 05:12:39;;;;;;;13.05;6.18;;;;;;;16.87;52.10;95483.97;5061479;28;20033;-75
2023/09/12 05:15:05;;;;;;;29.90;7.68;;;;;;;16.70;51.87;95470.47;5063377;28;20040;-75
2023/09/12 05:17:30;;;;;;;19.63;6.45;;;;;;;16.91;51.90;95487.63;5042044;28;20419;-76
2023/09/12 05:19:56;;;;;;;22.55;6.30;;;;;;;16.71;51.68;95450.59;5047872;28;20052;-78
2023/09/12 05:22:21;;;;;;;15.07;6.85;;;;;;;17.00;51.56;95497.59;5059129;28;20033;-77
2023/09/12 05:24:47;;;;;;;13.07;5.35;;;;;;;17.11;51.27;95529.19;5041570;28;20105;-78
2023/09/12 05:27:13;;;;;;;11.23;5.13;;;;;;;17.20;51.07;95530.03;5048489;28;20075;-77
2023/09/12 05:29:38;;;;;;;14.43;5.63;;;;;;;17.25;50.84;95521.06;5054226;28;21294;-77
2023/09/12 05:32:05;;;;;;;22.33;6.15;;;;;;;17.34;51.27;95530.75;5039845;28;20021;-77
2023/09/12 05:34:30;;;;;;;23.30;6.65;;;;;;;17.10;51.10;95508.84;5045150;28;20041;-77
2023/09/12 05:36:56;;;;;;;22.10;6.85;;;;;;;17.08;51.18;95502.22;5027360;28;20059;-76
2023/09/12 05:39:22;;;;;;;14.18;6.50;;;;;;;17.25;51.00;95513.03;5041847;28;20421;-75
2023/09/12 05:41:48;;;;;;;15.80;6.50;;;;;;;17.22;51.03;95516.34;5040031;28;20021;-75
2023/09/12 05:44:17;;;;;;;17.58;6.38;;;;;;;17.32;50.96;95516.06;5024861;28;20544;-77
2023/09/12 05:46:46;;;;;;;17.30;6.45;;;;;;;17.38;50.77;95524.78;5022714;28;20079;-76
2023/09/12 05:49:12;;;;;;;19.02;6.68;;;;;;;17.20;50.56;95481.81;5005201;28;20067;-77
2023/09/12 05:51:37;;;;;;;21.40;6.55;;;;;;;17.41;50.50;95508.06;5022341;28;20070;-76
2023/09/12 05:54:03;;;;;;;23.73;6.60;;;;;;;17.30;50.62;95512.91;5015133;28;20078;-77
2023/09/12 05:56:29;;;;;;;23.08;6.63;;;;;;;17.57;50.45;95539.53;5027941;28;20067;-78
2023/09/12 05:58:54;;;;;;;18.10;6.80;;;;;;;17.40;50.63;95496.56;5022558;28;20041;-77
2023/09/12 06:01:20;;;;;;;24.65;7.18;;;;;;;17.49;50.41;95493.91;5031228;28;20088;-78
2023/09/12 06:03:45;;;;;;;19.65;6.70;;;;;;;17.14;50.25;95444.72;5018830;28;20064;-77
2023/09/12 06:06:11;;;;;;;14.00;6.07;;;;;;;17.63;50.25;95506.16;5021572;28;20056;-74
2023/09/12 06:08:37;;;;;;;14.35;5.15;;;;;;;17.88;49.95;95534.19;5023359;28;20120;-76
2023/09/12 06:11:02;;;;;;;27.38;7.78;;;;;;;17.82;50.04;95521.22;5042757;28;20124;-77
2023/09/12 06:13:28;;;;;;;15.10;6.28;;;;;;;17.88;49.70;95528.03;5027027;28;20049;-74
2023/09/12 06:15:53;;;;;;;19.27;6.40;;;;;;;18.06;49.56;95532.34;5028469;28;20040;-77
2023/09/12 06:18:19;;;;;;;15.75;6.80;;;;;;;17.70;49.65;95498.44;5043641;28;20506;-75
2023/09/12 06:20:45;;;;;;;18.00;6.93;;;;;;;17.92;49.48;95511.00;5046258;28;20029;-77
2023/09/12 06:23:10;;;;;;;33.45;7.03;;;;;;;18.10;49.56;95539.44;5035884;28;20108;-77
2023/09/12 06:25:36;;;;;;;18.80;7.18;;;;;;;18.04;49.37;95526.50;5031710;28;20037;-74
2023/09/12 06:28:01;;;;;;;22.55;7.68;;;;;;;18.11;49.41;95537.56;5038077;28;20032;-77
2023/09/12 06:30:26;;;;;;;21.52;7.25;;;;;;;18.06;49.28;95511.66;5033906;28;20056;-75
2023/09/12 06:32:52;;;;;;;26.88;7.25;;;;;;;18.06;49.19;95526.97;5029285;28;20054;-77
2023/09/12 06:35:17;;;;;;;17.05;7.25;;;;;;;18.32;48.88;95557.34;5046700;28;20052;-77
2023/09/12 06:37:43;;;;;;;27.60;7.32;;;;;;;18.25;48.71;95518.63;5047973;28;20032;-75
2023/09/12 06:40:09;;;;;;;23.05;7.30;;;;;;;18.44;48.59;95540.63;5015124;28;20036;-77
2023/09/12 06:42:34;;;;;;;21.98;6.70;;;;;;;18.23;48.14;95518.19;5014476;28;20040;-76
2023/09/12 06:45:00;;;;;;;11.95;5.90;;;;;;;18.28;47.91;95509.97;5017772;28;20075;-75
2023/09/12 06:47:25;;;;;;;12.35;6.10;;;;;;;18.43;47.48;95522.94;5003976;28;20051;-77
2023/09/12 06:49:50;;;;;;;15.05;6.20;;;;;;;18.60;47.64;95538.31;5003122;28;20455;-76
2023/09/12 06:52:16;;;;;;;15.25;7.20;;;;;;;18.68;47.59;95549.06;5015718;28;20467;-76
2023/09/12 06:54:41;;;;;;;17.13;6.50;;;;;;;18.63;47.57;95529.59;5003524;28;20043;-76
2023/09/12 06:57:07;;;;;;;35.28;8.57;;;;;;;18.49;48.19;95509.03;5019273;28;20037;-76
2023/09/12 06:59:32;;;;;;;19.70;7.40;;;;;;;18.83;48.03;95542.44;5022710;28;21535;-77
2023/09/12 07:01:58;;;;;;;18.67;7.53;;;;;;;18.08;48.30;95433.50;5008563;28;20937;-78
2023/09/12 07:04:24;;;;;;;19.27;7.20;;;;;;;18.61;47.98;95508.47;5007827;28;20575;-78
2023/09/12 07:06:51;;;;;;;23.55;6.03;;;;;;;19.00;47.62;95555.84;5000616;28;20060;-77
2023/09/12 07:09:16;;;;;;;19.10;6.90;;;;;;;19.03;47.35;95549.84;5006670;28;20049;-78
2023/09/12 07:11:42;;;;;;;18.70;6.55;;;;;;;18.73;47.35;95522.03;5023748;28;20056;-76
2023/09/12 07:14:09;;;;;;;20.13;6.03;;;;;;;18.85;47.25;95522.19;5034605;28;20637;-77
2023/09/12 07:16:35;;;;;;;17.38;6.75;;;;;;;19.07;46.92;95548.09;5018531;28;20029;-77
2023/09/12 07:19:00;;;;;;;13.57;6.50;;;;;;;18.47;46.58;95462.91;5039829;28;20039;-78
2023/09/12 07:21:26;;;;;;;14.55;5.78;;;;;;;18.78;46.59;95497.69;5015116;28;20032;-78
2023/09/12 07:23:51;;;;;;;22.20;6.25;;;;;;;18.95;46.61;95521.06;5021004;28;20128;-76
2023/09/12 07:26:17;;;;;;;21.70;6.00;;;;;;;18.82;46.26;95490.59;5015787;28;20033;-77
2023/09/12 07:28:43;;;;;;;18.25;6.70;;;;;;;19.24;46.15;95558.81;5030636;28;20400;-77
2023/09/12 07:31:08;;;;;;;11.25;4.55;;;;;;;18.91;45.89;95511.28;5012092;28;20029;-77
2023/09/12 07:33:34;;;;;;;11.35;4.88;;;;;;;18.93;46.07;95525.97;5031495;28;20157;-77
2023/09/12 07:36:02;;;;;;;16.52;5.00;;;;;;;19.05;45.74;95522.66;5025477;28;20128;-76
2023/09/12 07:38:30;;;;;;;16.48;5.05;;;;;;;19.33;45.24;95561.50;5024597;28;20043;-77
2023/09/12 07:40:56;;;;;;;12.23;4.57;;;;;;;19.14;44.42;95516.16;5035626;28;20033;-77
2023/09/12 07:43:22;;;;;;;14.63;4.00;;;;;;;19.39;44.30;95546.78;5039044;28;20073;-78
2023/09/12 07:45:49;;;;;;;18.05;4.57;;;;;;;19.39;44.05;95536.03;5042231;28;20040;-76
2023/09/12 07:48:15;;;;;;;12.23;4.18;;;;;;;19.41;43.90;95516.88;5042610;28;20124;-76
2023/09/12 07:50:40;;;;;;;9.20;3.80;;;;;;;19.52;43.92;95535.09;5042380;28;20498;-76
2023/09/12 07:53:06;;;;;;;10.27;4.82;;;;;;;19.63;43.97;95548.97;5044419;28;20120;-76
2023/09/12 07:55:44;;;;;;;10.48;3.90;;;;;;;19.57;43.66;95510.69;5024951;28;20353;-76
2023/09/12 07:58:10;;;;;;;11.23;3.85;;;;;;;19.65;42.64;95512.56;5023966;28;20107;-78
2023/09/12 08:00:36;;;;;;;11.32;3.80;;;;;;;19.95;42.76;95540.28;5025643;28;20136;-78
2023/09/12 08:03:02;;;;;;;20.65;4.57;;;;;;;19.79;42.50;95508.88;5040746;28;20053;-75
2023/09/12 08:05:27;;;;;;;10.90;4.30;;;;;;;20.06;42.43;95543.44;5047826;28;20060;-76
2023/09/12 08:07:53;;;;;;;11.23;4.78;;;;;;;19.96;41.42;95523.03;5024185;28;20116;-75
2023/09/12 08:10:18;;;;;;;6.80;3.55;;;;;;;20.03;41.08;95526.00;5019776;28;20029;-75
2023/09/12 08:12:44;;;;;;;6.28;2.80;;;;;;;20.02;40.94;95551.34;5022487;28;20028;-78
2023/09/12 08:15:10;;;;;;;14.13;2.97;;;;;;;20.12;41.20;95541.34;5038915;28;20322;-76
2023/09/12 08:17:35;;;;;;;12.25;2.83;;;;;;;19.96;40.86;95528.41;5039886;28;20797;-77
2023/09/12 08:20:01;;;;;;;11.48;3.20;;;;;;;20.18;40.93;95542.72;5023489;28;20099;-77
2023/09/12 08:22:26;;;;;;;9.80;2.85;;;;;;;20.04;40.99;95516.03;5014111;28;20043;-75
2023/09/12 08:24:52;;;;;;;10.80;3.03;;;;;;;19.88;40.62;95493.47;5042325;28;20037;-76
2023/09/12 08:27:17;;;;;;;17.40;3.67;;;;;;;20.07;40.53;95522.66;5020122;28;20039;-76
2023/09/12 08:29:44;;;;;;;8.00;2.80;;;;;;;20.07;40.45;95504.59;5029988;28;20041;-78
2023/09/12 08:32:10;;;;;;;6.78;2.80;;;;;;;20.18;40.31;95502.31;5034394;28;20025;-78
2023/09/12 08:34:35;;;;;;;9.57;2.88;;;;;;;20.40;40.07;95550.53;5024015;28;20433;-77
2023/09/12 08:37:01;;;;;;;9.10;2.55;;;;;;;20.30;39.97;95510.47;5038828;28;20040;-78
2023/09/12 08:39:27;;;;;;;16.42;3.25;;;;;;;20.39;39.73;95508.56;5038573;28;20040;-76
2023/09/12 08:41:53;;;;;;;7.82;2.83;;;;;;;20.58;39.44;95535.06;5024252;28;20527;-77
2023/09/12 08:44:20;;;;;;;9.02;2.70;;;;;;;20.52;39.50;95518.28;5036665;28;20029;-77
2023/09/12 08:46:46;;;;;;;10.15;3.25;;;;;;;20.54;39.58;95509.88;5043518;28;20017;-77
2023/09/12 08:49:12;;;;;;;14.00;2.95;;;;;;;20.63;39.57;95514.09;5020227;28;20208;-78
2023/09/12 08:51:40;;;;;;;9.98;3.33;;;;;;;20.77;39.42;95524.59;5036476;28;20025;-79
2023/09/12 08:54:07;;;;;;;5.05;2.40;;;;;;;20.79;39.03;95523.16;5023045;28;20067;-79
2023/09/12 08:56:35;;;;;;;6.18;2.65;;;;;;;20.92;38.93;95524.00;5024762;28;20017;-77
2023/09/12 08:59:01;;;;;;;5.43;2.72;;;;;;;20.96;39.13;95519.53;5042063;28;20782;-79
2023/09/12 09:01:30;;;;;;;8.23;2.22;;;;;;;20.93;39.11;95495.91;5025731;28;20036;-78
2023/09/12 09:03:57;;;;;;;8.13;3.15;;;;;;;20.82;38.86;95473.22;5013709;28;20045;-78
2023/09/12 09:06:24;;;;;;;16.13;3.08;;;;;;;21.07;38.80;95501.03;5048088;28;20052;-77
2023/09/12 09:08:50;;;;;;;6.88;2.92;;;;;;;21.13;38.39;95521.28;5029699;28;20529;-78
2023/09/12 09:11:19;;;;;;;12.23;3.72;;;;;;;21.07;38.40;95518.00;5039264;28;20037;-79
2023/09/12 09:13:45;;;;;;;7.22;2.63;;;;;;;20.74;38.39;95442.50;5026822;28;20040;-79
2023/09/12 09:16:14;;;;;;;8.75;3.15;;;;;;;21.26;38.09;95514.84;5019963;28;20032;-79
2023/09/12 09:18:57;;;;;;;10.38;3.03;;;;;;;21.34;37.64;95508.56;5037539;28;20096;-79
2023/09/12 09:21:25;;;;;;;11.93;3.30;;;;;;;21.41;37.46;95519.59;5043969;28;20478;-78
2023/09/12 09:23:55;;;;;;;8.32;2.97;;;;;;;21.18;37.58;95470.66;5017774;28;20562;-79
2023/09/12 09:26:21;;;;;;;8.20;2.90;;;;;;;21.60;37.81;95512.88;5002392;28;20037;-79
2023/09/12 09:29:05;;;;;;;8.10;2.75;;;;;;;21.29;38.05;95433.22;5001508;28;20048;-79
2023/09/12 09:31:32;;;;;;;6.63;2.58;;;;;;;21.78;37.97;95485.34;5025323;28;20048;-79
2023/09/12 09:33:58;;;;;;;12.07;3.22;;;;;;;21.57;38.00;95444.19;5021216;28;20071;-79
2023/09/12 09:36:25;;;;;;;6.05;2.75;;;;;;;21.93;37.21;95478.50;5025077;28;20049;-79
2023/09/12 09:38:50;;;;;;;5.75;2.47;;;;;;;22.12;36.64;95497.66;5023750;28;20033;-80
2023/09/12 09:41:19;;;;;;;6.57;2.92;;;;;;;21.95;36.54;95473.53;5036600;28;20040;-79
2023/09/12 09:43:45;;;;;;;8.63;2.55;;;;;;;21.91;36.40;95459.13;5018445;28;20128;-80
2023/09/12 09:46:15;;;;;;;10.77;2.90;;;;;;;22.14;36.18;95468.38;5027731;28;20032;-80
2023/09/12 09:48:49;;;;;;;7.18;2.88;;;;;;;22.06;35.98;95449.59;5011898;28;20033;-78
2023/09/12 09:51:14;;;;;;;11.00;3.35;;;;;;;22.26;36.41;95468.38;5012945;28;20098;-79
2023/09/12 09:53:40;;;;;;;8.43;2.72;;;;;;;22.02;35.99;95413.59;5017594;28;20048;-79
2023/09/12 09:56:12;;;;;;;17.00;2.83;;;;;;;22.63;35.69;95452.06;5016327;28;20032;-80
2023/09/12 09:58:52;;;;;;;9.80;3.38;;;;;;;23.61;34.37;95468.63;5026480;28;20044;-79
2023/09/12 10:01:22;;;;;;;13.02;3.10;;;;;;;24.55;33.00;95439.50;5038431;28;20024;-79
2023/09/12 10:03:51;;;;;;;6.35;3.47;;;;;;;25.80;30.96;95469.75;5032004;28;20040;-77
2023/09/12 10:06:18;;;;;;;11.35;3.97;;;;;;;27.02;29.16;95462.97;5019178;28;20084;-77
2023/09/12 10:08:46;;;;;;;10.85;2.92;;;;;;;28.03;27.47;95464.34;5019174;28;20044;-79
2023/09/12 10:11:16;;;;;;;8.82;2.95;;;;;;;28.84;25.49;95446.94;5021521;28;20029;-78
2023/09/12 10:13:53;;;;;;;14.73;2.75;;;;;;;28.93;24.90;95436.44;5037158;28;20025;-79
2023/09/12 10:16:22;;;;;;;6.30;2.53;;;;;;;29.76;24.36;95449.91;5021782;28;20047;-80
2023/09/12 10:19:33;;;;;;;11.40;2.97;;;;;;;30.79;23.69;95452.53;5014695;28;20032;-78
2023/09/12 10:21:58;;;;;;;4.72;2.47;;;;;;;31.52;22.30;95452.59;4994612;28;20803;-79
2023/09/12 10:24:25;;;;;;;5.47;2.20;;;;;;;31.78;21.78;95435.59;5027923;28;20036;-81
2023/09/12 10:26:51;;;;;;;8.52;3.10;;;;;;;32.01;21.56;95409.56;5011158;28;20041;-78
2023/09/12 10:29:17;;;;;;;10.38;3.10;;;;;;;32.36;21.73;95435.88;5041005;28;20044;-79
2023/09/12 10:31:43;;;;;;;6.50;2.60;;;;;;;32.76;20.47;95439.81;5022838;28;20018;-78
2023/09/12 10:34:12;;;;;;;10.32;3.47;;;;;;;33.03;21.15;95442.63;5042844;28;20033;-78
2023/09/12 10:36:39;;;;;;;11.35;3.13;;;;;;;33.02;20.95;95378.66;5031243;28;20035;-78
2023/09/12 10:39:07;;;;;;;10.55;2.92;;;;;;;33.39;19.94;95438.22;5049048;28;20091;-79
2023/09/12 10:41:33;;;;;;;7.57;2.83;;;;;;;33.24;20.17;95440.41;5052285;28;20093;-80
2023/09/12 10:43:59;;;;;;;11.05;3.13;;;;;;;32.95;20.22;95387.78;5035369;28;20056;-78
2023/09/12 10:46:24;;;;;;;8.10;2.70;;;;;;;33.30;20.15;95416.75;5032830;28;20033;-78
2023/09/12 10:48:51;;;;;;;9.75;2.95;;;;;;;33.45;19.30;95411.81;5032861;28;20044;-79
2023/09/12 10:51:18;;;;;;;8.30;2.92;;;;;;;33.57;19.48;95410.47;5052581;28;20029;-78
2023/09/12 10:53:50;;;;;;;10.30;2.50;;;;;;;33.72;19.76;95409.84;5042764;28;20071;-79
2023/09/12 10:56:21;;;;;;;3.83;2.40;;;;;;;33.87;20.20;95399.41;5051222;28;20020;-80
2023/09/12 10:59:04;;;;;;;9.27;2.58;;;;;;;34.00;19.76;95413.34;5029867;28;20132;-79
2023/09/12 11:01:34;;;;;;;12.88;2.70;;;;;;;34.31;20.06;95414.00;5032960;28;20037;-80
2023/09/12 11:04:27;;;;;;;10.65;3.20;;;;;;;34.36;19.97;95408.78;5066982;28;20021;-78
2023/09/12 11:06:53;;;;;;;8.25;3.53;;;;;;;34.33;19.22;95403.38;5045100;28;20106;-78
2023/09/12 11:09:23;;;;;;;12.55;2.45;;;;;;;34.45;19.88;95386.22;5033993;28;20032;-79
2023/09/12 11:11:55;;;;;;;9.20;2.65;;;;;;;34.94;19.13;95412.00;5049897;28;20060;-78
2023/09/12 11:14:20;;;;;;;10.52;3.00;;;;;;;34.85;19.12;95392.53;5055144;28;20057;-78
2023/09/12 11:17:20;;;;;;;16.45;2.92;;;;;;;35.18;18.74;95404.41;5057151;28;20029;-78
2023/09/12 11:19:49;;;;;;;8.05;2.47;;;;;;;35.16;18.76;95393.81;5053592;28;20082;-81
2023/09/12 11:22:31;;;;;;;10.27;2.60;;;;;;;34.97;19.10;95366.28;5053074;28;20651;-83
2023/09/12 11:25:02;;;;;;;10.20;2.47;;;;;;;35.36;18.84;95384.75;5033696;28;20033;-82
2023/09/12 11:28:04;;;;;;;9.88;3.20;;;;;;;35.41;18.99;95393.28;5051561;28;20048;-82